createdAt,value
2023-02-22T00:01:35.965Z,83.57
2023-02-22T00:04:05.611Z,79.47
2023-02-22T00:06:33.231Z,73.72
2023-02-22T00:09:02.379Z,73.57
2023-02-22T00:11:31.654Z,67.03
2023-02-22T00:13:59.060Z,70.03
2023-02-22T00:16:26.895Z,69.50
2023-02-22T00:18:54.997Z,67.97
2023-02-22T00:21:22.665Z,62.10
2023-02-22T00:23:49.905Z,62.25
2023-02-22T00:26:23.538Z,58.75
2023-02-22T00:28:53.256Z,62.03
2023-02-22T00:31:21.383Z,59.67
2023-02-22T00:33:48.533Z,54.80
2023-02-22T00:36:16.117Z,55.53
2023-02-22T00:38:43.241Z,54.03
2023-02-22T00:41:10.388Z,51.15
2023-02-22T00:43:37.467Z,50.42
2023-02-22T00:46:04.907Z,51.35
2023-02-22T00:48:32.025Z,50.67
2023-02-22T00:50:59.180Z,47.97
2023-02-22T00:53:26.749Z,48.85
2023-02-22T00:55:54.468Z,44.60
2023-02-22T00:58:22.224Z,44.00
2023-02-22T01:00:49.596Z,44.30
2023-02-22T01:03:19.765Z,44.42
2023-02-22T01:05:47.260Z,44.80
2023-02-22T01:08:15.801Z,45.13
2023-02-22T01:10:43.396Z,43.28
2023-02-22T01:13:12.545Z,41.40
2023-02-22T01:15:42.771Z,42.65
2023-02-22T01:18:11.749Z,40.92
2023-02-22T01:20:39.609Z,38.70
2023-02-22T01:23:08.194Z,39.63
2023-02-22T01:25:36.070Z,38.33
2023-02-22T01:28:05.800Z,37.72
2023-02-22T01:33:03.438Z,38.42
2023-02-22T01:35:33.150Z,36.95
2023-02-22T01:38:00.535Z,35.67
2023-02-22T01:40:32.578Z,35.67
2023-02-22T01:43:15.604Z,35.60
2023-02-22T01:45:47.326Z,34.97
2023-02-22T01:48:17.557Z,34.13
2023-02-22T01:51:10.901Z,32.35
2023-02-22T01:53:46.361Z,33.03
2023-02-22T01:56:14.137Z,32.78
2023-02-22T01:58:43.855Z,32.65
2023-02-22T02:01:12.045Z,31.67
2023-02-22T02:03:40.623Z,31.58
2023-02-22T02:06:13.082Z,30.75
2023-02-22T02:09:20.256Z,30.55
2023-02-22T02:11:47.406Z,29.95
2023-02-22T02:14:15.256Z,29.33
2023-02-22T02:16:45.244Z,29.60
2023-02-22T02:19:47.328Z,28.63
2023-02-22T02:22:23.369Z,28.88
2023-02-22T02:24:53.167Z,29.75
2023-02-22T02:27:23.568Z,29.25
2023-02-22T02:30:29.149Z,27.15
2023-02-22T02:32:59.138Z,27.50
2023-02-22T02:35:39.531Z,27.20
2023-02-22T02:38:31.184Z,26.15
2023-02-22T02:41:36.874Z,26.60
2023-02-22T02:44:13.637Z,26.10
2023-02-22T02:46:49.584Z,25.33
2023-02-22T02:49:22.392Z,25.25
2023-02-22T02:51:52.654Z,22.95
2023-02-22T02:54:21.100Z,23.48
2023-02-22T02:56:48.518Z,26.05
2023-02-22T02:59:30.945Z,23.52
2023-02-22T03:02:17.474Z,23.80
2023-02-22T03:05:16.471Z,22.48
2023-02-22T03:07:49.438Z,23.08
2023-02-22T03:10:38.059Z,22.23
2023-02-22T03:13:16.863Z,22.75
2023-02-22T03:15:57.082Z,22.23
2023-02-22T03:18:50.707Z,22.45
2023-02-22T03:21:24.884Z,20.80
2023-02-22T03:24:01.606Z,20.52
2023-02-22T03:26:42.642Z,20.83
2023-02-22T03:29:12.711Z,19.92
2023-02-22T03:31:49.165Z,20.55
2023-02-22T03:34:20.492Z,20.75
2023-02-22T03:36:59.098Z,19.45
2023-02-22T03:39:31.187Z,19.92
2023-02-22T03:42:04.125Z,19.00
2023-02-22T03:44:32.475Z,19.55
2023-02-22T03:47:02.637Z,19.23
2023-02-22T03:49:46.034Z,18.70
2023-02-22T03:52:13.200Z,18.83
2023-02-22T03:54:40.680Z,17.48
2023-02-22T03:57:31.479Z,17.85
2023-02-22T03:59:58.716Z,17.75
2023-02-22T04:02:25.823Z,17.63
2023-02-22T04:04:52.919Z,17.80
2023-02-22T04:07:20.111Z,17.15
2023-02-22T04:09:47.184Z,16.20
2023-02-22T04:12:14.358Z,17.55
2023-02-22T04:14:41.446Z,17.13
2023-02-22T04:17:08.911Z,16.83
2023-02-22T04:19:36.255Z,16.50
2023-02-22T04:22:03.313Z,16.77
2023-02-22T04:24:30.724Z,15.75
2023-02-22T04:26:57.800Z,16.38
2023-02-22T04:29:24.908Z,16.80
2023-02-22T04:31:51.970Z,15.25
2023-02-22T04:34:19.114Z,15.65
2023-02-22T04:36:46.133Z,15.40
2023-02-22T04:39:13.345Z,14.65
2023-02-22T04:41:40.495Z,15.27
2023-02-22T04:44:07.706Z,14.43
2023-02-22T04:46:34.966Z,15.15
2023-02-22T04:49:02.200Z,14.25
2023-02-22T04:51:29.428Z,14.57
2023-02-22T04:53:56.498Z,13.55
2023-02-22T04:56:24.019Z,14.23
2023-02-22T04:58:51.092Z,13.63
2023-02-22T05:01:18.485Z,13.55
2023-02-22T05:03:45.688Z,13.35
2023-02-22T05:06:13.020Z,13.55
2023-02-22T05:08:40.075Z,13.05
2023-02-22T05:11:07.120Z,12.90
2023-02-22T05:13:34.204Z,12.20
2023-02-22T05:16:01.638Z,12.18
2023-02-22T05:18:29.741Z,12.15
2023-02-22T05:20:56.879Z,12.07
2023-02-22T05:23:23.926Z,11.95
2023-02-22T05:25:51.036Z,11.50
2023-02-22T05:28:18.077Z,11.27
2023-02-22T05:30:45.428Z,11.00
2023-02-22T05:33:13.166Z,10.32
2023-02-22T05:35:40.236Z,10.48
2023-02-22T05:38:07.807Z,10.88
2023-02-22T05:40:35.181Z,10.93
2023-02-22T05:43:02.958Z,10.55
2023-02-22T05:45:30.375Z,10.40
2023-02-22T05:47:58.148Z,10.52
2023-02-22T05:50:25.419Z,9.80
2023-02-22T05:52:53.349Z,9.93
2023-02-22T05:55:22.270Z,9.85
2023-02-22T05:57:49.604Z,10.48
2023-02-22T06:00:25.276Z,9.55
2023-02-22T06:02:56.857Z,10.15
2023-02-22T06:05:24.236Z,9.10
2023-02-22T06:07:51.404Z,9.48
2023-02-22T06:10:18.870Z,9.82
2023-02-22T06:12:46.501Z,9.20
2023-02-22T06:15:15.840Z,9.07
2023-02-22T06:17:43.195Z,9.23
2023-02-22T06:20:12.281Z,8.65
2023-02-22T06:22:41.322Z,9.00
2023-02-22T06:25:09.687Z,8.27
2023-02-22T06:27:37.420Z,8.80
2023-02-22T06:30:05.193Z,9.07
2023-02-22T06:32:32.543Z,8.07
2023-02-22T06:34:59.761Z,8.82
2023-02-22T06:37:26.863Z,8.65
2023-02-22T06:39:53.964Z,8.98
2023-02-22T06:42:21.121Z,8.00
2023-02-22T06:44:49.347Z,8.43
2023-02-22T06:47:16.846Z,8.75
2023-02-22T06:49:43.873Z,7.97
2023-02-22T06:52:11.070Z,8.35
2023-02-22T06:54:39.444Z,8.10
2023-02-22T06:57:06.681Z,8.65
2023-02-22T06:59:33.803Z,7.95
2023-02-22T07:02:00.838Z,8.27
2023-02-22T07:04:27.940Z,7.93
2023-02-22T07:06:55.086Z,8.02
2023-02-22T07:09:22.310Z,7.95
2023-02-22T07:11:49.390Z,8.15
2023-02-22T07:14:19.635Z,7.47
2023-02-22T07:16:46.720Z,7.68
2023-02-22T07:19:14.082Z,7.25
2023-02-22T07:21:41.196Z,7.88
2023-02-22T07:24:08.443Z,7.05
2023-02-22T07:26:40.817Z,6.97
2023-02-22T07:29:07.984Z,7.60
2023-02-22T07:31:36.885Z,7.78
2023-02-22T07:34:03.972Z,7.03
2023-02-22T07:36:31.092Z,6.97
2023-02-22T07:38:58.281Z,7.03
2023-02-22T07:41:26.304Z,8.13
2023-02-22T07:43:53.402Z,29.88
2023-02-22T07:46:20.705Z,30.10
2023-02-22T07:48:47.835Z,27.58
2023-02-22T07:51:20.629Z,27.35
2023-02-22T07:53:49.059Z,26.40
2023-02-22T07:58:45.363Z,59.83
2023-02-22T08:01:12.527Z,61.28
2023-02-22T08:03:39.677Z,59.85
2023-02-22T08:06:07.829Z,57.60
2023-02-22T08:08:34.946Z,53.95
2023-02-22T08:11:02.049Z,50.45
2023-02-22T08:13:29.157Z,47.60
2023-02-22T08:15:56.715Z,44.45
2023-02-22T08:18:25.041Z,42.38
2023-02-22T08:20:53.022Z,40.65
2023-02-22T08:23:22.677Z,37.75
2023-02-22T08:25:49.730Z,35.60
2023-02-22T08:28:19.909Z,35.63
2023-02-22T08:30:47.035Z,32.85
2023-02-22T08:33:16.930Z,32.50
2023-02-22T08:35:44.225Z,30.45
2023-02-22T08:38:21.699Z,29.55
2023-02-22T08:40:49.836Z,27.38
2023-02-22T08:43:18.292Z,30.05
2023-02-22T08:45:45.876Z,38.78
2023-02-22T08:48:14.235Z,41.05
2023-02-22T08:50:44.475Z,69.72
2023-02-22T08:53:13.640Z,49.00
2023-02-22T08:55:42.087Z,39.97
2023-02-22T08:58:09.977Z,34.55
2023-02-22T09:00:38.923Z,34.25
2023-02-22T09:03:08.621Z,33.85
2023-02-22T09:05:35.670Z,34.50
2023-02-22T09:08:03.103Z,32.05
2023-02-22T09:10:32.783Z,32.33
2023-02-22T09:15:28.988Z,31.92
2023-02-22T09:17:56.500Z,30.27
2023-02-22T09:20:24.606Z,29.98
2023-02-22T09:22:52.201Z,29.33
2023-02-22T09:25:22.905Z,29.85
2023-02-22T09:27:51.800Z,27.42
2023-02-22T09:30:32.475Z,26.80
2023-02-22T09:33:06.235Z,26.10
2023-02-22T09:35:36.387Z,25.77
2023-02-22T09:38:06.399Z,24.48
2023-02-22T09:40:41.009Z,24.45
2023-02-22T09:43:23.918Z,23.13
2023-02-22T09:46:21.954Z,23.60
2023-02-22T09:48:59.677Z,20.60
2023-02-22T09:51:49.495Z,27.83
2023-02-22T09:54:43.475Z,27.13
2023-02-22T09:57:16.313Z,24.23
2023-02-22T09:59:48.785Z,23.70
2023-02-22T10:02:27.096Z,22.73
2023-02-22T10:05:29.128Z,22.27
2023-02-22T10:08:05.866Z,22.40
2023-02-22T10:10:39.373Z,20.15
2023-02-22T10:13:28.094Z,19.85
2023-02-22T10:16:05.915Z,20.38
2023-02-22T10:18:55.245Z,18.42
2023-02-22T10:21:54.247Z,22.42
2023-02-22T10:24:42.794Z,23.23
2023-02-22T10:27:19.727Z,22.60
2023-02-22T10:29:51.135Z,21.20
2023-02-22T10:32:26.691Z,20.50
2023-02-22T10:34:55.496Z,19.98
2023-02-22T10:37:25.793Z,19.03
2023-02-22T10:40:00.344Z,23.95
2023-02-22T10:42:28.780Z,24.27
2023-02-22T10:44:55.846Z,23.95
2023-02-22T10:47:23.393Z,21.10
2023-02-22T10:49:53.817Z,20.83
2023-02-22T10:52:30.028Z,19.80
2023-02-22T10:55:14.085Z,18.50
2023-02-22T10:57:44.437Z,17.98
2023-02-22T11:00:20.824Z,16.67
2023-02-22T11:02:57.515Z,15.93
2023-02-22T11:05:36.823Z,15.80
2023-02-22T11:08:22.129Z,16.17
2023-02-22T11:10:51.503Z,15.23
2023-02-22T11:13:31.264Z,14.98
2023-02-22T11:18:36.456Z,14.18
2023-02-22T11:21:07.903Z,13.60
2023-02-22T11:23:37.821Z,14.00
2023-02-22T11:26:10.866Z,12.98
2023-02-22T11:28:49.512Z,13.10
2023-02-22T11:31:23.847Z,12.60
2023-02-22T11:36:40.977Z,16.27
2023-02-22T11:39:35.317Z,19.08
2023-02-22T11:42:23.205Z,18.15
2023-02-22T11:45:12.931Z,16.02
2023-02-22T11:53:08.353Z,15.00
2023-02-22T11:55:50.550Z,13.95
2023-02-22T11:58:38.985Z,13.25
2023-02-22T12:01:17.613Z,12.55
2023-02-22T12:03:59.682Z,12.80
2023-02-22T12:06:46.958Z,11.38
2023-02-22T12:09:37.177Z,11.52
2023-02-22T12:12:07.218Z,11.25
2023-02-22T12:14:42.405Z,12.27
2023-02-22T12:17:25.975Z,11.55
2023-02-22T12:20:01.668Z,11.63
2023-02-22T12:22:38.494Z,10.30
2023-02-22T12:25:22.251Z,10.50
2023-02-22T12:27:56.165Z,10.93
2023-02-22T12:30:36.501Z,9.68
2023-02-22T12:33:07.237Z,9.90
2023-02-22T12:35:40.744Z,10.20
2023-02-22T12:38:23.206Z,9.70
2023-02-22T12:41:14.027Z,9.73
2023-02-22T12:44:10.808Z,9.52
2023-02-22T12:46:40.753Z,8.73
2023-02-22T12:49:41.942Z,8.63
2023-02-22T12:52:21.932Z,12.93
2023-02-22T12:54:59.704Z,15.30
2023-02-22T12:57:48.189Z,17.50
2023-02-22T13:00:23.284Z,17.08
2023-02-22T13:03:05.151Z,15.68
2023-02-22T13:05:39.260Z,14.52
2023-02-22T13:08:26.225Z,13.75
2023-02-22T13:11:33.312Z,13.68
2023-02-22T13:14:06.052Z,11.25
2023-02-22T13:16:52.772Z,11.93
2023-02-22T13:19:54.395Z,11.45
2023-02-22T13:22:47.573Z,14.88
2023-02-22T13:25:25.739Z,18.42
2023-02-22T13:28:00.547Z,16.45
2023-02-22T13:30:45.732Z,14.98
2023-02-22T13:33:25.735Z,13.50
2023-02-22T13:36:07.079Z,13.20
2023-02-22T13:38:52.745Z,12.82
2023-02-22T13:41:48.565Z,12.23
2023-02-22T13:44:27.452Z,10.07
2023-02-22T13:47:18.748Z,10.68
2023-02-22T13:50:02.431Z,10.30
2023-02-22T13:52:32.227Z,10.50
2023-02-22T13:55:10.970Z,10.15
2023-02-22T13:57:51.565Z,9.05
2023-02-22T14:00:24.466Z,8.60
2023-02-22T14:03:03.787Z,8.73
2023-02-22T14:08:19.772Z,7.78
2023-02-22T14:10:50.821Z,8.52
2023-02-22T14:13:19.968Z,19.15
2023-02-22T14:16:05.135Z,19.27
2023-02-22T14:18:43.637Z,18.45
2023-02-22T14:21:12.550Z,17.38
2023-02-22T14:23:41.717Z,13.77
2023-02-22T14:26:30.306Z,13.32
2023-02-22T14:28:59.569Z,12.38
2023-02-22T14:31:43.469Z,11.15
2023-02-22T14:34:12.331Z,11.07
2023-02-22T14:37:09.588Z,10.00
2023-02-22T14:39:43.653Z,10.07
2023-02-22T14:42:18.564Z,9.80
2023-02-22T14:44:52.598Z,8.80
2023-02-22T14:47:28.244Z,9.30
2023-02-22T14:50:04.565Z,9.25
2023-02-22T14:52:35.836Z,8.60
2023-02-22T14:55:16.467Z,8.60
2023-02-22T14:58:10.579Z,8.70
2023-02-22T15:00:43.495Z,8.05
2023-02-22T15:03:56.010Z,7.57
2023-02-22T15:06:31.442Z,8.77
2023-02-22T15:09:14.398Z,7.65
2023-02-22T15:11:41.574Z,7.18
2023-02-22T15:14:25.671Z,7.50
2023-02-22T15:16:55.394Z,7.38
2023-02-22T15:19:26.451Z,7.57
2023-02-22T15:21:55.717Z,7.18
2023-02-22T15:24:31.005Z,7.45
2023-02-22T15:27:06.138Z,8.02
2023-02-22T15:29:37.357Z,7.35
2023-02-22T15:32:27.570Z,7.97
2023-02-22T15:34:56.519Z,7.13
2023-02-22T15:37:25.753Z,7.28
2023-02-22T15:39:59.526Z,7.50
2023-02-22T15:42:29.725Z,7.57
2023-02-22T15:44:57.928Z,7.15
2023-02-22T15:47:32.467Z,7.13
2023-02-22T15:50:33.368Z,7.40
2023-02-22T15:53:08.129Z,6.93
2023-02-22T15:55:44.147Z,6.97
2023-02-22T15:58:25.404Z,7.45
2023-02-22T16:01:12.391Z,7.43
2023-02-22T16:03:45.722Z,6.55
2023-02-22T16:06:38.344Z,7.28
2023-02-22T16:09:14.841Z,10.38
2023-02-22T16:11:44.304Z,24.52
2023-02-22T16:14:28.727Z,27.83
2023-02-22T16:17:31.559Z,26.65
2023-02-22T16:20:00.455Z,23.10
2023-02-22T16:22:33.926Z,19.75
2023-02-22T16:25:28.155Z,19.48
2023-02-22T16:28:03.115Z,15.27
2023-02-22T16:30:40.415Z,14.70
2023-02-22T16:33:13.567Z,13.32
2023-02-22T16:35:41.172Z,12.27
2023-02-22T16:38:17.022Z,11.73
2023-02-22T16:40:54.676Z,11.68
2023-02-22T16:43:33.340Z,11.80
2023-02-22T16:46:01.700Z,11.07
2023-02-22T16:48:32.757Z,10.30
2023-02-22T16:51:23.401Z,10.35
2023-02-22T16:53:52.896Z,11.98
2023-02-22T16:56:23.493Z,10.75
2023-02-22T16:58:50.964Z,10.02
2023-02-22T17:01:18.548Z,9.82
2023-02-22T17:03:45.830Z,10.25
2023-02-22T17:06:13.051Z,10.07
2023-02-22T17:08:41.323Z,25.73
2023-02-22T17:11:10.842Z,33.28
2023-02-22T17:13:38.186Z,32.75
2023-02-22T17:16:05.786Z,29.65
2023-02-22T17:18:34.231Z,27.67
2023-02-22T17:21:04.779Z,25.10
2023-02-22T17:23:31.987Z,24.45
2023-02-22T17:26:02.294Z,23.60
2023-02-22T17:28:29.630Z,21.85
2023-02-22T17:31:02.065Z,22.92
2023-02-22T17:33:32.973Z,22.50
2023-02-22T17:36:02.115Z,23.20
2023-02-22T17:38:30.445Z,22.27
2023-02-22T17:40:59.044Z,23.30
2023-02-22T17:43:28.019Z,22.02
2023-02-22T17:45:55.525Z,22.20
2023-02-22T17:48:24.146Z,28.65
2023-02-22T17:50:52.062Z,25.08
2023-02-22T17:53:22.710Z,22.17
2023-02-22T17:55:50.329Z,24.30
2023-02-22T17:58:18.158Z,22.13
2023-02-22T18:00:48.461Z,21.92
2023-02-22T18:03:25.721Z,21.77
2023-02-22T18:05:58.812Z,20.73
2023-02-22T18:08:31.105Z,21.73
2023-02-22T18:10:58.965Z,20.77
2023-02-22T18:13:27.476Z,22.25
2023-02-22T18:16:00.238Z,21.02
2023-02-22T18:18:28.102Z,19.15
2023-02-22T18:20:59.608Z,19.00
2023-02-22T18:23:28.559Z,19.10
2023-02-22T18:26:09.733Z,18.33
2023-02-22T18:28:37.674Z,19.55
2023-02-22T18:31:09.807Z,18.23
2023-02-22T18:33:37.097Z,18.40
2023-02-22T18:36:04.790Z,19.42
2023-02-22T18:38:32.255Z,18.77
2023-02-22T18:41:04.995Z,20.58
2023-02-22T18:43:34.266Z,34.45
2023-02-22T18:46:16.407Z,36.40
2023-02-22T18:48:44.727Z,36.45
2023-02-22T18:51:13.968Z,33.75
2023-02-22T18:53:46.750Z,31.63
2023-02-22T18:56:21.683Z,30.15
2023-02-22T18:58:56.973Z,29.00
2023-02-22T19:01:24.352Z,27.90
2023-02-22T19:03:52.068Z,26.45
2023-02-22T19:06:22.583Z,25.75
2023-02-22T19:08:51.008Z,26.58
2023-02-22T19:11:21.963Z,25.95
2023-02-22T19:13:52.034Z,30.10
2023-02-22T19:16:20.305Z,23.45
2023-02-22T19:18:49.184Z,24.38
2023-02-22T19:21:17.043Z,22.45
2023-02-22T19:23:48.268Z,20.33
2023-02-22T19:26:21.151Z,23.40
2023-02-22T19:28:48.870Z,44.33
2023-02-22T19:31:18.778Z,41.65
2023-02-22T19:33:47.417Z,39.95
2023-02-22T19:36:15.448Z,36.63
2023-02-22T19:38:42.831Z,33.92
2023-02-22T19:41:18.153Z,31.77
2023-02-22T19:43:46.902Z,30.85
2023-02-22T19:46:14.278Z,30.77
2023-02-22T19:48:41.326Z,26.98
2023-02-22T19:51:13.918Z,25.35
2023-02-22T19:53:41.898Z,23.45
2023-02-22T19:56:10.246Z,22.73
2023-02-22T19:58:38.771Z,21.67
2023-02-22T20:01:27.160Z,21.85
2023-02-22T20:03:59.788Z,21.75
2023-02-22T20:06:34.736Z,20.13
2023-02-22T20:09:02.725Z,19.35
2023-02-22T20:11:30.141Z,19.48
2023-02-22T20:13:57.270Z,18.48
2023-02-22T20:16:24.872Z,19.33
2023-02-22T20:18:52.282Z,19.05
2023-02-22T20:21:26.649Z,18.42
2023-02-22T20:23:57.165Z,17.45
2023-02-22T20:26:25.701Z,17.15
2023-02-22T20:28:53.282Z,16.20
2023-02-22T20:31:21.433Z,16.25
2023-02-22T20:33:52.660Z,15.60
2023-02-22T20:36:22.188Z,16.58
2023-02-22T20:38:53.912Z,14.90
2023-02-22T20:41:24.583Z,16.98
2023-02-22T20:43:52.991Z,15.60
2023-02-22T20:46:20.180Z,16.27
2023-02-22T20:48:47.543Z,15.30
2023-02-22T20:51:15.612Z,14.20
2023-02-22T20:53:45.029Z,14.98
2023-02-22T20:56:14.486Z,15.27
2023-02-22T20:58:42.204Z,23.88
2023-02-22T21:01:13.956Z,27.52
2023-02-22T21:03:44.196Z,25.92
2023-02-22T21:06:15.481Z,25.92
2023-02-22T21:08:44.336Z,24.60
2023-02-22T21:11:13.319Z,22.05
2023-02-22T21:13:41.040Z,21.73
2023-02-22T21:16:10.344Z,20.58
2023-02-22T21:18:37.635Z,19.65
2023-02-22T21:21:10.438Z,18.40
2023-02-22T21:23:41.159Z,18.35
2023-02-22T21:26:14.712Z,18.33
2023-02-22T21:28:51.938Z,17.05
2023-02-22T21:31:21.555Z,17.00
2023-02-22T21:33:53.943Z,17.13
2023-02-22T21:36:25.422Z,16.42
2023-02-22T21:38:55.658Z,16.75
2023-02-22T21:41:27.462Z,15.65
2023-02-22T21:43:56.338Z,16.45
2023-02-22T21:46:24.439Z,16.93
2023-02-22T21:48:51.682Z,16.58
2023-02-22T21:51:25.486Z,16.00
2023-02-22T21:53:55.694Z,16.02
2023-02-22T21:56:27.354Z,15.15
2023-02-22T21:58:59.659Z,15.40
2023-02-22T22:01:30.958Z,14.95
2023-02-22T22:04:00.180Z,15.55
2023-02-22T22:06:28.954Z,15.13
2023-02-22T22:08:56.818Z,17.97
2023-02-22T22:11:25.221Z,21.33
2023-02-22T22:13:57.646Z,24.55
2023-02-22T22:16:27.222Z,21.33
2023-02-22T22:18:55.169Z,25.73
2023-02-22T22:21:24.054Z,26.83
2023-02-22T22:23:54.522Z,24.85
2023-02-22T22:26:24.629Z,26.73
2023-02-22T22:28:57.527Z,30.88
2023-02-22T22:31:28.267Z,32.72
2023-02-22T22:33:56.425Z,30.92
2023-02-22T22:36:26.496Z,32.97
2023-02-22T22:38:57.509Z,30.05
2023-02-22T22:41:25.157Z,29.83
2023-02-22T22:43:54.124Z,25.60
2023-02-22T22:46:21.574Z,27.27
2023-02-22T22:48:48.787Z,26.50
2023-02-22T22:51:19.882Z,23.50
2023-02-22T22:53:48.554Z,27.25
2023-02-22T22:56:18.392Z,29.73
2023-02-22T22:58:58.828Z,24.35
2023-02-22T23:01:31.767Z,21.45
2023-02-22T23:04:04.450Z,24.40
2023-02-22T23:06:36.696Z,26.02
2023-02-22T23:09:24.750Z,25.27
2023-02-22T23:12:17.912Z,20.50
2023-02-22T23:14:45.518Z,25.85
2023-02-22T23:17:31.096Z,23.67
2023-02-22T23:19:58.466Z,22.88
2023-02-22T23:22:25.490Z,19.42
2023-02-22T23:24:52.549Z,19.42
2023-02-22T23:27:19.632Z,19.13
2023-02-22T23:29:47.100Z,18.25
2023-02-22T23:32:14.510Z,19.67
2023-02-22T23:34:41.892Z,18.40
2023-02-22T23:37:10.660Z,22.33
2023-02-22T23:39:38.104Z,18.98
2023-02-22T23:42:08.715Z,21.27
2023-02-22T23:44:36.043Z,18.23
2023-02-22T23:47:04.013Z,17.70
2023-02-22T23:49:38.041Z,17.77
2023-02-22T23:52:06.682Z,19.80
2023-02-22T23:54:36.732Z,16.88
2023-02-22T23:57:04.677Z,16.38
2023-02-22T23:59:32.912Z,19.10
